Snow Hill, Maryland
Current Conditions -  °F | °C
As of 2:54 AM on Sunday 23 Nov 2014 (Local Time) from KSBY Reporting Station
Clear Clear  
Wind Chill: 29°   Ceiling: Unl
Heat Index: 29°   Visibility: 10mi
Dew Point: 24°   Wind: 3mph
Humidity: 82%   Direction: 180°S
Pressure: 30.28"   Gusts: NA
Location:  38.18°N, 75.39°W
Report Text: KSBY 230754Z AUTO 18003KT 10SM CLR M02/M04 A3028 RMK AO2 SLP257 T10171044
Loading
Personal Weather Stations






























Interactive Weather Map New forecast layout! Learn more

10-Day Weather Forecast

Advertisements
Track Severe Weather on mobile